Search METAR Data

METAR Data for ENAL:

ENAL 301220Z 05012KT 9999 FEW015 14/10 Q1010